Time;durP1;ratioP1;P1;durP2;ratioP2;P2;SDS_P1;SDS_P2;PMS_P1;PMS_P2;Temp;Humidity;BMP_temperature;BMP_pressure;BME280_temperature;BME280_humidity;BME280_pressure;Samples;Min_cycle;Max_cycle;Signal;HPM_P1;HPM_P2
2022/05/27 00:08:42;;;;;;;1.75;0.77;;;;;;;;;;5027495;28;20061;-59
2022/05/27 00:11:15;;;;;;;3.40;1.13;;;;;;;;;;5027211;28;20030;-59
2022/05/27 00:16:57;;;;;;;4.75;0.75;;;;;;;;;;5027015;28;20095;-59
2022/05/27 00:22:40;;;;;;;1.23;0.70;;;;;;;;;;5005279;28;20037;-59
2022/05/27 00:28:13;;;;;;;1.35;0.85;;;;;;;;;;4998019;28;20113;-59
2022/05/27 00:31:12;;;;;;;1.70;1.00;;;;;;;;;;4988777;28;20128;-58
2022/05/27 00:34:11;;;;;;;2.20;1.20;;;;;;;;;;4974280;28;20101;-59
2022/05/27 00:37:16;;;;;;;;;;;;;;;;;;;;;
2022/05/27 00:42:48;;;;;;;1.75;1.10;;;;;;;;;;4992412;28;20027;-59
2022/05/27 00:45:43;;;;;;;3.03;0.98;;;;;;;;;;5006167;28;20118;-59
2022/05/27 00:48:21;;;;;;;4.50;1.08;;;;;;;;;;4999071;28;20042;-59
2022/05/27 00:51:07;;;;;;;;;;;;;;;;;;;;;
2022/05/27 00:54:00;;;;;;;2.55;1.30;;;;;;;;;;5027655;28;20050;-58
2022/05/27 00:57:11;;;;;;;3.22;1.17;;;;;;;;;;5028350;28;20022;-58
2022/05/27 00:59:55;;;;;;;3.77;1.30;;;;;;;;;;4990850;28;20549;-59
2022/05/27 01:02:24;;;;;;;3.63;1.15;;;;;;;;;;4990495;28;20023;-58
2022/05/27 01:05:04;;;;;;;3.33;1.00;;;;;;;;;;4988386;28;20046;-58
2022/05/27 01:11:06;;;;;;;2.45;1.17;;;;;;;;;;4944110;29;20043;-59
2022/05/27 01:14:16;;;;;;;;;;;;;;;;;;;;;
2022/05/27 01:29:39;;;;;;;;;;;;;;;;;;;;;
2022/05/27 01:32:28;;;;;;;1.70;0.80;;;;;;;;;;5031449;28;20054;-59
2022/05/27 01:35:16;;;;;;;1.15;0.63;;;;;;;;;;5031340;28;20022;-59
2022/05/27 01:38:01;;;;;;;;;;;;;;;;;;;;;
2022/05/27 01:40:46;;;;;;;3.17;1.02;;;;;;;;;;5030679;28;20061;-58
2022/05/27 01:43:44;;;;;;;2.17;1.08;;;;;;;;;;5031860;28;20122;-58
2022/05/27 01:46:25;;;;;;;2.15;1.17;;;;;;;;;;4972851;28;20049;-59
2022/05/27 01:49:17;;;;;;;5.88;1.13;;;;;;;;;;5030853;28;20042;-59
2022/05/27 01:52:08;;;;;;;2.95;1.08;;;;;;;;;;5030373;28;20018;-59
2022/05/27 01:54:53;;;;;;;3.28;0.80;;;;;;;;;;5030138;28;20033;-59
2022/05/27 01:57:33;;;;;;;2.45;1.15;;;;;;;;;;5030572;28;20088;-58
2022/05/27 02:00:41;;;;;;;1.90;0.95;;;;;;;;;;5028082;28;20097;-58
2022/05/27 02:03:25;;;;;;;2.30;1.30;;;;;;;;;;4975875;28;20042;-59
2022/05/27 02:09:04;;;;;;;3.42;1.23;;;;;;;;;;5041392;28;20038;-59
2022/05/27 02:14:58;;;;;;;2.45;1.50;;;;;;;;;;5050576;28;20033;-58
2022/05/27 02:17:38;;;;;;;1.70;1.08;;;;;;;;;;5006337;28;20031;-58
2022/05/27 02:20:41;;;;;;;1.05;0.70;;;;;;;;;;4983052;28;20042;-59
2022/05/27 02:23:31;;;;;;;4.95;1.05;;;;;;;;;;5043558;28;20045;-58
2022/05/27 02:26:19;;;;;;;2.42;1.40;;;;;;;;;;4992625;28;20044;-59
2022/05/27 02:29:10;;;;;;;1.52;0.73;;;;;;;;;;5009239;28;20130;-59
2022/05/27 02:35:09;;;;;;;1.90;1.27;;;;;;;;;;5039880;28;20029;-59
2022/05/27 02:41:26;;;;;;;2.15;1.02;;;;;;;;;;5008403;28;20043;-59
2022/05/27 02:44:25;;;;;;;1.52;0.77;;;;;;;;;;5050251;28;20033;-58
2022/05/27 02:47:21;;;;;;;2.05;1.15;;;;;;;;;;5009007;28;20036;-58
2022/05/27 02:50:19;;;;;;;;;;;;;;;;;;;;;
2022/05/27 02:53:16;;;;;;;;;;;;;;;;;;;;;
2022/05/27 02:55:49;;;;;;;1.45;0.90;;;;;;;;;;5002647;28;20058;-58
2022/05/27 03:01:23;;;;;;;1.88;1.00;;;;;;;;;;4983187;28;20152;-58
2022/05/27 03:03:58;;;;;;;1.83;1.02;;;;;;;;;;5017943;28;20114;-58
2022/05/27 03:12:59;;;;;;;2.83;1.52;;;;;;;;;;5028928;28;20042;-58
2022/05/27 03:15:56;;;;;;;1.50;1.00;;;;;;;;;;5029031;28;20022;-58
2022/05/27 03:19:02;;;;;;;1.92;1.35;;;;;;;;;;5010938;28;20030;-59
2022/05/27 03:22:02;;;;;;;2.05;1.25;;;;;;;;;;5028075;28;20063;-59
2022/05/27 03:25:10;;;;;;;2.10;1.20;;;;;;;;;;5028567;28;20029;-59
2022/05/27 03:30:58;;;;;;;2.40;1.40;;;;;;;;;;5018772;28;20030;-59
2022/05/27 03:33:52;;;;;;;3.55;1.85;;;;;;;;;;4999410;28;20121;-58
2022/05/27 03:39:32;;;;;;;2.58;1.38;;;;;;;;;;4994167;28;20376;-58
2022/05/27 03:42:01;;;;;;;;;;;;;;;;;;5016533;28;20026;-58
2022/05/27 03:48:01;;;;;;;2.38;1.48;;;;;;;;;;4973586;28;20589;-58
2022/05/27 03:50:39;;;;;;;3.78;1.58;;;;;;;;;;4974453;28;20493;-58
2022/05/27 03:56:46;;;;;;;;;;;;;;;;;;;;;
2022/05/27 04:03:04;;;;;;;3.85;1.00;;;;;;;;;;5019399;28;20049;-57
2022/05/27 04:09:08;;;;;;;3.50;1.52;;;;;;;;;;5019340;28;20033;-57
2022/05/27 04:11:37;;;;;;;2.75;1.25;;;;;;;;;;5032196;28;20060;-57
2022/05/27 04:14:41;;;;;;;3.70;1.33;;;;;;;;;;5016752;28;20494;-57
2022/05/27 04:20:37;;;;;;;3.03;1.55;;;;;;;;;;4895262;29;20505;-57
2022/05/27 04:23:32;;;;;;;5.63;1.38;;;;;;;;;;5008128;28;20553;-57
2022/05/27 04:29:29;;;;;;;4.40;1.80;;;;;;;;;;4973578;28;20206;-58
2022/05/27 04:35:38;;;;;;;2.33;1.40;;;;;;;;;;4915668;29;20068;-57
2022/05/27 04:38:34;;;;;;;3.25;1.40;;;;;;;;;;4883336;29;20495;-57
2022/05/27 04:41:25;;;;;;;2.15;1.17;;;;;;;;;;4967406;28;20585;-57
2022/05/27 04:47:08;;;;;;;;;;;;;;;;;;;;;
2022/05/27 04:49:56;;;;;;;4.10;1.35;;;;;;;;;;4971475;28;20047;-57
2022/05/27 04:52:46;;;;;;;3.17;1.75;;;;;;;;;;4974007;28;20039;-57
2022/05/27 04:55:22;;;;;;;2.17;1.25;;;;;;;;;;4973274;28;20038;-57
2022/05/27 04:58:16;;;;;;;2.17;1.15;;;;;;;;;;4991962;28;20052;-58
2022/05/27 05:01:02;;;;;;;3.65;1.50;;;;;;;;;;5015819;28;20056;-57
2022/05/27 05:03:34;;;;;;;8.73;2.20;;;;;;;;;;5034060;28;20432;-58
2022/05/27 05:06:25;;;;;;;;;;;;;;;;;;;;;
2022/05/27 05:08:58;;;;;;;1.98;1.20;;;;;;;;;;5034294;28;20029;-57
2022/05/27 05:11:45;;;;;;;2.58;1.27;;;;;;;;;;5035006;28;20022;-57
2022/05/27 05:14:26;;;;;;;4.18;0.73;;;;;;;;;;5017121;28;20472;-58
2022/05/27 05:17:07;;;;;;;3.42;1.35;;;;;;;;;;5034561;28;20473;-58
2022/05/27 05:19:36;;;;;;;;;;;;;;;;;;5034632;28;20030;-58
2022/05/27 05:25:23;;;;;;;2.15;1.13;;;;;;;;;;5015140;28;20032;-58
2022/05/27 05:34:19;;;;;;;2.17;1.08;;;;;;;;;;5031865;28;20044;-57
2022/05/27 05:37:02;;;;;;;5.57;1.73;;;;;;;;;;5031312;28;20068;-57
2022/05/27 05:46:10;;;;;;;3.53;1.33;;;;;;;;;;4977309;28;20049;-57
2022/05/27 05:49:02;;;;;;;2.55;1.33;;;;;;;;;;5037702;28;20418;-57
2022/05/27 05:54:34;;;;;;;2.60;1.85;;;;;;;;;;5035056;28;20598;-57
2022/05/27 05:57:10;;;;;;;3.22;1.67;;;;;;;;;;5018621;28;20033;-57
2022/05/27 05:59:42;;;;;;;2.80;1.48;;;;;;;;;;5034028;28;20045;-58
2022/05/27 06:02:28;;;;;;;2.42;1.33;;;;;;;;;;5014763;28;20480;-57
2022/05/27 06:08:30;;;;;;;2.10;1.25;;;;;;;;;;4917833;29;20039;-58
2022/05/27 06:17:14;;;;;;;3.53;1.73;;;;;;;;;;4905486;29;20091;-57
2022/05/27 06:20:26;;;;;;;3.08;1.52;;;;;;;;;;4962501;28;20129;-58
2022/05/27 06:23:21;;;;;;;6.43;2.08;;;;;;;;;;4955714;28;20083;-58
2022/05/27 06:26:08;;;;;;;3.10;1.67;;;;;;;;;;4995342;28;20388;-58
2022/05/27 06:34:26;;;;;;;3.20;1.70;;;;;;;;;;4994777;28;20033;-58
2022/05/27 06:37:16;;;;;;;3.08;2.17;;;;;;;;;;4994172;28;20461;-58
2022/05/27 06:39:49;;;;;;;3.45;1.90;;;;;;;;;;4970834;28;20377;-58
2022/05/27 06:42:41;;;;;;;2.95;1.85;;;;;;;;;;4999448;28;20026;-58
2022/05/27 06:45:40;;;;;;;3.47;1.70;;;;;;;;;;5016899;28;20050;-58
2022/05/27 06:51:24;;;;;;;3.97;1.85;;;;;;;;;;5005489;28;20038;-59
2022/05/27 06:54:10;;;;;;;6.68;2.38;;;;;;;;;;4996414;28;20121;-58
2022/05/27 07:02:48;;;;;;;3.30;2.00;;;;;;;;;;5035976;28;20056;-58
2022/05/27 07:05:47;;;;;;;;;;;;;;;;;;;;;
2022/05/27 07:08:36;;;;;;;4.25;1.83;;;;;;;;;;5027201;28;20052;-58
2022/05/27 07:11:29;;;;;;;2.45;1.52;;;;;;;;;;5024919;28;20041;-58
2022/05/27 07:14:14;;;;;;;;;;;;;;;;;;;;;
2022/05/27 07:16:41;;;;;;;2.25;1.40;;;;;;;;;;5033319;28;20048;-58
2022/05/27 07:19:22;;;;;;;3.25;1.77;;;;;;;;;;5035888;28;20486;-59
2022/05/27 07:25:24;;;;;;;3.40;2.58;;;;;;;;;;5022553;28;20048;-58
2022/05/27 07:28:13;;;;;;;2.90;2.08;;;;;;;;;;5026790;28;20040;-58
2022/05/27 07:30:43;;;;;;;3.65;2.30;;;;;;;;;;4997682;28;20487;-58
2022/05/27 07:33:40;;;;;;;3.33;1.65;;;;;;;;;;5035956;28;20030;-59
2022/05/27 07:36:37;;;;;;;3.65;1.95;;;;;;;;;;5018577;28;20472;-59
2022/05/27 07:39:19;;;;;;;2.88;2.05;;;;;;;;;;4991288;28;20105;-59
2022/05/27 07:45:26;;;;;;;2.58;1.70;;;;;;;;;;5035921;28;20065;-59
2022/05/27 07:47:59;;;;;;;3.63;2.05;;;;;;;;;;5034766;28;20028;-57
2022/05/27 07:53:48;;;;;;;8.18;1.75;;;;;;;;;;5035187;28;20471;-59
2022/05/27 07:56:29;;;;;;;3.55;2.28;;;;;;;;;;5018060;28;20037;-57
2022/05/27 07:59:29;;;;;;;9.20;2.28;;;;;;;;;;5035397;28;20034;-58
2022/05/27 08:02:20;;;;;;;2.25;1.75;;;;;;;;;;5021201;28;20124;-59
2022/05/27 08:05:07;;;;;;;2.25;1.45;;;;;;;;;;5014590;28;20030;-60
2022/05/27 08:07:57;;;;;;;2.22;1.45;;;;;;;;;;4996006;28;20488;-59
2022/05/27 08:13:34;;;;;;;3.75;2.00;;;;;;;;;;5014490;28;20038;-59
2022/05/27 08:16:10;;;;;;;5.32;1.42;;;;;;;;;;5014572;28;20029;-58
2022/05/27 08:19:09;;;;;;;5.25;1.60;;;;;;;;;;5015076;28;20360;-59
2022/05/27 08:21:56;;;;;;;;;;;;;;;;;;;;;
2022/05/27 08:24:36;;;;;;;3.22;1.60;;;;;;;;;;5014151;28;20022;-58
2022/05/27 08:27:10;;;;;;;4.13;1.92;;;;;;;;;;5013527;28;20391;-59
2022/05/27 08:29:48;;;;;;;3.70;1.65;;;;;;;;;;4981304;28;20033;-58
2022/05/27 08:32:37;;;;;;;2.08;1.60;;;;;;;;;;5013488;28;20033;-58
2022/05/27 08:38:27;;;;;;;;;;;;;;;;;;;;;
2022/05/27 08:41:25;;;;;;;4.43;1.95;;;;;;;;;;5014900;28;20108;-58
2022/05/27 08:44:29;;;;;;;6.00;2.35;;;;;;;;;;5015104;28;20044;-59
2022/05/27 08:47:29;;;;;;;3.90;1.67;;;;;;;;;;5013355;28;20037;-58
2022/05/27 08:50:16;;;;;;;4.60;1.80;;;;;;;;;;4995698;28;20436;-58
2022/05/27 08:53:22;;;;;;;4.03;2.13;;;;;;;;;;5014503;28;20034;-59
2022/05/27 08:59:27;;;;;;;3.08;1.60;;;;;;;;;;5014271;28;20142;-60
2022/05/27 09:02:33;;;;;;;2.88;1.83;;;;;;;;;;4953282;29;20051;-59
2022/05/27 09:05:22;;;;;;;3.08;1.52;;;;;;;;;;4954159;29;20104;-59
2022/05/27 09:08:21;;;;;;;3.58;1.65;;;;;;;;;;4953015;29;20497;-59
2022/05/27 09:11:15;;;;;;;2.95;1.23;;;;;;;;;;4922250;29;20086;-59
2022/05/27 09:14:03;;;;;;;2.45;1.58;;;;;;;;;;5034316;28;20461;-59
2022/05/27 09:16:41;;;;;;;4.28;1.40;;;;;;;;;;5034118;28;20379;-58
2022/05/27 09:19:31;;;;;;;4.15;1.92;;;;;;;;;;5035728;28;20072;-58
2022/05/27 09:25:00;;;;;;;1.98;1.50;;;;;;;;;;5037655;28;20071;-58
2022/05/27 09:27:49;;;;;;;2.78;1.40;;;;;;;;;;5004167;28;20026;-58
2022/05/27 09:30:22;;;;;;;2.67;1.92;;;;;;;;;;5036829;28;20046;-58
2022/05/27 09:32:59;;;;;;;2.67;1.70;;;;;;;;;;5037989;28;20093;-58
2022/05/27 09:36:06;;;;;;;;;;;;;;;;;;;;;
2022/05/27 09:38:50;;;;;;;2.90;1.77;;;;;;;;;;5032152;28;20117;-59
2022/05/27 09:41:38;;;;;;;2.78;1.35;;;;;;;;;;5019203;28;20490;-58
2022/05/27 09:44:20;;;;;;;2.72;1.45;;;;;;;;;;5036599;28;20033;-59
2022/05/27 09:50:11;;;;;;;2.85;1.58;;;;;;;;;;5022560;28;20220;-59
2022/05/27 09:53:18;;;;;;;2.20;1.50;;;;;;;;;;5019830;28;20041;-58
2022/05/27 09:56:25;;;;;;;;;;;;;;;;;;;;;
2022/05/27 10:02:09;;;;;;;3.33;1.63;;;;;;;;;;5037118;28;20085;-58
2022/05/27 10:05:03;;;;;;;;;;;;;;;;;;;;;
2022/05/27 10:08:09;;;;;;;4.10;1.45;;;;;;;;;;5019060;28;20063;-59
2022/05/27 10:10:46;;;;;;;4.13;1.45;;;;;;;;;;5024834;28;20048;-59
2022/05/27 10:13:39;;;;;;;3.08;1.23;;;;;;;;;;5052163;28;20041;-59
2022/05/27 10:16:37;;;;;;;1.95;1.17;;;;;;;;;;5036056;28;20498;-60
2022/05/27 10:22:47;;;;;;;5.28;1.48;;;;;;;;;;5036257;28;20386;-59
2022/05/27 10:25:36;;;;;;;2.40;1.30;;;;;;;;;;4992808;28;20365;-59
2022/05/27 10:31:25;;;;;;;3.25;1.70;;;;;;;;;;4986269;28;20403;-59
2022/05/27 10:34:14;;;;;;;3.72;2.08;;;;;;;;;;5004588;28;20474;-59
2022/05/27 10:40:06;;;;;;;2.00;1.00;;;;;;;;;;4966194;28;20559;-59
2022/05/27 10:45:54;;;;;;;2.42;0.98;;;;;;;;;;5012076;28;20594;-58
2022/05/27 10:51:57;;;;;;;1.95;1.23;;;;;;;;;;5042064;28;20048;-59
2022/05/27 11:07:21;;;;;;;;;;;;;;;;;;;;;
2022/05/27 11:10:16;;;;;;;2.28;0.90;;;;;;;;;;4991696;28;20132;-58
2022/05/27 11:16:03;;;;;;;2.03;1.20;;;;;;;;;;5044544;28;20032;-58
2022/05/27 11:21:42;;;;;;;1.73;0.90;;;;;;;;;;5044216;28;20079;-58
2022/05/27 11:30:12;;;;;;;1.75;0.75;;;;;;;;;;5031461;28;20097;-58
2022/05/27 11:33:21;;;;;;;3.47;0.95;;;;;;;;;;5046592;28;20033;-58
2022/05/27 11:36:17;;;;;;;1.42;0.70;;;;;;;;;;4987456;28;20042;-59
2022/05/27 11:39:09;;;;;;;4.57;1.00;;;;;;;;;;5027826;28;20037;-58
2022/05/27 11:41:57;;;;;;;1.98;1.08;;;;;;;;;;5060962;28;20025;-58
2022/05/27 11:44:51;;;;;;;1.95;0.88;;;;;;;;;;5044261;28;20025;-58
2022/05/27 11:47:35;;;;;;;2.28;1.25;;;;;;;;;;5042559;28;20097;-58
2022/05/27 11:53:13;;;;;;;2.88;1.13;;;;;;;;;;5035035;28;20578;-58
2022/05/27 11:56:14;;;;;;;1.50;0.80;;;;;;;;;;5035426;28;20030;-58
2022/05/27 11:59:09;;;;;;;2.40;1.40;;;;;;;;;;5049927;28;20044;-58
2022/05/27 12:02:11;;;;;;;1.67;0.95;;;;;;;;;;5056853;28;20052;-58
2022/05/27 12:05:30;;;;;;;2.95;1.00;;;;;;;;;;5043553;28;20026;-59
2022/05/27 12:11:23;;;;;;;1.85;1.00;;;;;;;;;;4957796;29;20098;-59
2022/05/27 12:14:36;;;;;;;;;;;;;;;;;;;;;
2022/05/27 12:17:12;;;;;;;1.92;0.75;;;;;;;;;;5024938;28;20451;-59
2022/05/27 12:19:43;;;;;;;3.10;0.80;;;;;;;;;;5043710;28;20041;-59
2022/05/27 12:22:30;;;;;;;1.63;0.80;;;;;;;;;;5045145;28;20030;-60
2022/05/27 12:25:28;;;;;;;1.65;0.75;;;;;;;;;;5045021;28;20052;-59
2022/05/27 12:34:20;;;;;;;1.98;1.15;;;;;;;;;;5020853;28;20025;-59
2022/05/27 12:37:18;;;;;;;1.67;0.80;;;;;;;;;;4986391;28;20065;-59
2022/05/27 12:40:04;;;;;;;1.80;1.05;;;;;;;;;;4990424;28;20045;-59
2022/05/27 12:46:05;;;;;;;;;;;;;;;;;;;;;
2022/05/27 12:48:58;;;;;;;1.65;0.82;;;;;;;;;;5045308;28;20084;-59
2022/05/27 12:51:33;;;;;;;1.63;0.90;;;;;;;;;;5044826;28;20052;-58
2022/05/27 12:54:36;;;;;;;1.45;0.70;;;;;;;;;;5042988;28;20026;-59
2022/05/27 13:00:57;;;;;;;1.80;1.00;;;;;;;;;;4996727;28;20085;-58
2022/05/27 13:03:31;;;;;;;;;;;;;;;;;;4960578;28;20054;-58
2022/05/27 13:06:25;;;;;;;1.50;0.90;;;;;;;;;;4973443;28;19958;-58
2022/05/27 13:08:53;;;;;;;3.00;1.05;;;;;;;;;;4973302;28;20162;-58
2022/05/27 13:11:53;;;;;;;2.45;0.73;;;;;;;;;;4973066;28;20038;-58
2022/05/27 13:14:40;;;;;;;1.75;0.57;;;;;;;;;;4987549;28;20567;-58
2022/05/27 13:20:42;;;;;;;;;;;;;;;;;;;;;
2022/05/27 13:23:21;;;;;;;1.88;1.20;;;;;;;;;;5003183;28;20122;-58
2022/05/27 13:26:13;;;;;;;3.03;1.13;;;;;;;;;;5015396;28;20022;-58
2022/05/27 13:29:09;;;;;;;3.72;1.30;;;;;;;;;;5014391;28;20045;-59
2022/05/27 13:38:08;;;;;;;2.10;1.25;;;;;;;;;;5005115;28;20153;-59
2022/05/27 13:40:38;;;;;;;1.70;1.00;;;;;;;;;;4991665;28;20034;-58
2022/05/27 13:43:28;;;;;;;2.38;0.93;;;;;;;;;;4991612;28;20616;-58
2022/05/27 13:46:26;;;;;;;;;;;;;;;;;;;;;
2022/05/27 13:49:17;;;;;;;1.40;0.73;;;;;;;;;;5014115;28;20443;-58
2022/05/27 13:51:46;;;;;;;;;;;;;;;;;;5010396;28;20448;-59
2022/05/27 13:57:30;;;;;;;1.65;0.77;;;;;;;;;;5013582;28;20041;-58
2022/05/27 14:03:03;;;;;;;1.10;0.63;;;;;;;;;;5033100;28;20080;-58
2022/05/27 14:05:41;;;;;;;1.40;0.70;;;;;;;;;;5016783;28;20030;-60
2022/05/27 14:08:40;;;;;;;1.55;0.93;;;;;;;;;;5020874;28;20029;-59
2022/05/27 14:11:33;;;;;;;1.67;1.02;;;;;;;;;;5014352;28;20065;-58
2022/05/27 14:14:15;;;;;;;;;;;;;;;;;;;;;
2022/05/27 14:16:58;;;;;;;;;;;;;;;;;;;;;
2022/05/27 14:19:38;;;;;;;;;;;;;;;;;;;;;
2022/05/27 14:25:13;;;;;;;5.78;1.17;;;;;;;;;;5036979;28;20120;-58
2022/05/27 14:28:11;;;;;;;1.33;0.80;;;;;;;;;;5019367;28;20031;-58
2022/05/27 14:30:41;;;;;;;1.83;0.80;;;;;;;;;;5035780;28;20045;-59
2022/05/27 14:33:28;;;;;;;1.75;1.02;;;;;;;;;;5037256;28;20459;-59
2022/05/27 14:36:28;;;;;;;1.58;0.80;;;;;;;;;;5050081;28;20476;-59
2022/05/27 14:39:05;;;;;;;1.60;1.00;;;;;;;;;;5036690;28;20479;-59
2022/05/27 14:41:43;;;;;;;;;;;;;;;;;;;;;
2022/05/27 14:44:48;;;;;;;;;;;;;;;;;;;;;
2022/05/27 14:47:50;;;;;;;1.70;0.75;;;;;;;;;;4990454;28;20066;-59
2022/05/27 14:50:49;;;;;;;2.13;1.00;;;;;;;;;;4994279;28;20034;-59
2022/05/27 14:53:30;;;;;;;1.80;1.00;;;;;;;;;;4973366;28;20030;-58
2022/05/27 14:56:13;;;;;;;1.55;0.75;;;;;;;;;;4995038;28;20453;-58
2022/05/27 14:58:42;;;;;;;1.83;1.00;;;;;;;;;;4995760;28;20049;-59
2022/05/27 15:01:29;;;;;;;;;;;;;;;;;;;;;
2022/05/27 15:04:26;;;;;;;2.17;0.82;;;;;;;;;;4966591;28;20488;-58
2022/05/27 15:06:57;;;;;;;1.40;0.90;;;;;;;;;;4979201;28;20031;-58
2022/05/27 15:12:26;;;;;;;1.85;0.75;;;;;;;;;;4994691;28;20041;-58
2022/05/27 15:15:55;;;;;;;;;;;;;;;;;;;;;
2022/05/27 15:21:42;;;;;;;1.25;0.63;;;;;;;;;;4932337;29;20434;-58
2022/05/27 15:24:29;;;;;;;1.10;0.68;;;;;;;;;;4935409;29;20039;-58
2022/05/27 15:33:50;;;;;;;0.80;0.30;;;;;;;;;;5033566;28;20060;-58
2022/05/27 15:36:35;;;;;;;2.33;0.98;;;;;;;;;;5013321;28;20549;-58
2022/05/27 15:39:20;;;;;;;1.40;0.52;;;;;;;;;;5036745;28;20379;-58
2022/05/27 15:45:25;;;;;;;1.13;0.60;;;;;;;;;;5005652;28;20021;-59
2022/05/27 15:47:53;;;;;;;1.27;0.68;;;;;;;;;;5006180;28;20045;-59
2022/05/27 15:50:56;;;;;;;1.35;0.68;;;;;;;;;;5031442;28;20033;-59
2022/05/27 15:53:48;;;;;;;2.35;0.88;;;;;;;;;;5024905;28;20447;-59
2022/05/27 15:56:36;;;;;;;2.83;1.17;;;;;;;;;;5031592;28;20033;-60
2022/05/27 16:02:02;;;;;;;1.90;0.70;;;;;;;;;;5035080;28;20086;-59
2022/05/27 16:04:31;;;;;;;1.95;0.85;;;;;;;;;;5017968;28;20132;-59
2022/05/27 16:07:19;;;;;;;1.67;0.73;;;;;;;;;;5034321;28;20022;-59
2022/05/27 16:09:59;;;;;;;1.38;0.68;;;;;;;;;;5034855;28;20120;-60
2022/05/27 16:12:35;;;;;;;0.77;0.47;;;;;;;;;;5034777;28;20032;-60
2022/05/27 16:15:28;;;;;;;1.30;0.73;;;;;;;;;;4971653;28;20023;-60
2022/05/27 16:18:22;;;;;;;4.45;0.73;;;;;;;;;;4973462;28;20047;-61
2022/05/27 16:21:14;;;;;;;1.27;0.60;;;;;;;;;;4955339;28;20086;-58
2022/05/27 16:23:47;;;;;;;1.65;0.50;;;;;;;;;;4973186;28;20081;-58
2022/05/27 16:32:41;;;;;;;1.67;0.50;;;;;;;;;;4973653;28;20039;-58
2022/05/27 16:35:27;;;;;;;;;;;;;;;;;;;;;
2022/05/27 16:41:29;;;;;;;1.60;0.50;;;;;;;;;;4968362;28;20090;-58
2022/05/27 16:47:05;;;;;;;0.60;0.30;;;;;;;;;;4878115;29;20124;-58
2022/05/27 16:49:38;;;;;;;0.70;0.30;;;;;;;;;;4926984;28;20544;-58
2022/05/27 16:52:47;;;;;;;3.47;0.47;;;;;;;;;;4967836;28;20034;-58
2022/05/27 16:55:59;;;;;;;;;;;;;;;;;;;;;
2022/05/27 16:58:35;;;;;;;1.33;0.47;;;;;;;;;;4991044;28;20480;-58
2022/05/27 17:01:16;;;;;;;1.10;0.40;;;;;;;;;;4992899;28;20110;-58
2022/05/27 17:07:00;;;;;;;2.10;0.73;;;;;;;;;;4930671;29;20389;-58
2022/05/27 17:09:53;;;;;;;;;;;;;;;;;;;;;
2022/05/27 17:13:03;;;;;;;0.55;0.30;;;;;;;;;;4978339;28;20044;-58
2022/05/27 17:18:37;;;;;;;;;;;;;;;;;;;;;
2022/05/27 17:21:17;;;;;;;;;;;;;;;;;;;;;
2022/05/27 17:27:01;;;;;;;1.15;0.60;;;;;;;;;;4961783;28;20027;-59
2022/05/27 17:29:45;;;;;;;1.40;0.73;;;;;;;;;;4957143;28;20047;-59
2022/05/27 17:35:16;;;;;;;1.80;0.50;;;;;;;;;;4968213;28;20405;-59
2022/05/27 17:38:06;;;;;;;1.10;0.47;;;;;;;;;;4973238;28;20154;-59
2022/05/27 17:40:56;;;;;;;0.63;0.40;;;;;;;;;;4962168;28;20035;-59
2022/05/27 17:43:43;;;;;;;0.57;0.35;;;;;;;;;;5018144;28;20389;-59
2022/05/27 17:52:36;;;;;;;1.10;0.50;;;;;;;;;;5018255;28;20041;-59
2022/05/27 17:55:34;;;;;;;1.33;0.50;;;;;;;;;;5000816;28;20084;-59
2022/05/27 17:58:07;;;;;;;0.95;0.50;;;;;;;;;;4977212;28;20481;-59
2022/05/27 18:00:48;;;;;;;1.52;0.63;;;;;;;;;;4979855;28;20050;-59
2022/05/27 18:03:52;;;;;;;4.00;1.17;;;;;;;;;;4975922;28;20106;-59
2022/05/27 18:06:51;;;;;;;1.23;0.73;;;;;;;;;;4976247;28;20050;-59
2022/05/27 18:09:40;;;;;;;2.95;1.02;;;;;;;;;;4974435;28;20051;-59
2022/05/27 18:12:30;;;;;;;1.17;0.60;;;;;;;;;;4973771;28;20034;-59
2022/05/27 18:15:08;;;;;;;2.17;0.93;;;;;;;;;;4974687;28;20474;-59
2022/05/27 18:18:12;;;;;;;1.83;1.10;;;;;;;;;;4991389;28;20034;-59
2022/05/27 18:24:14;;;;;;;2.00;1.27;;;;;;;;;;4975793;28;20045;-58
2022/05/27 18:26:49;;;;;;;2.58;1.23;;;;;;;;;;4997383;28;20045;-58
2022/05/27 18:29:50;;;;;;;2.10;1.25;;;;;;;;;;5016372;28;20026;-58
2022/05/27 18:32:29;;;;;;;2.58;0.95;;;;;;;;;;5016033;28;20038;-58
2022/05/27 18:35:09;;;;;;;4.88;1.27;;;;;;;;;;5026747;28;20034;-58
2022/05/27 18:37:51;;;;;;;2.05;0.98;;;;;;;;;;5017179;28;20026;-58
2022/05/27 18:41:05;;;;;;;5.07;0.82;;;;;;;;;;5030924;28;20479;-58
2022/05/27 18:43:43;;;;;;;4.80;0.88;;;;;;;;;;5016322;28;20060;-58
2022/05/27 18:46:28;;;;;;;3.78;1.38;;;;;;;;;;5016430;28;20022;-58
2022/05/27 18:49:01;;;;;;;2.70;1.20;;;;;;;;;;4989130;28;20550;-58
2022/05/27 18:51:36;;;;;;;13.18;3.55;;;;;;;;;;5016333;28;20033;-59
2022/05/27 18:54:05;;;;;;;3.05;1.48;;;;;;;;;;5016737;28;20038;-59
2022/05/27 18:56:42;;;;;;;3.50;1.67;;;;;;;;;;5031207;28;20506;-59
2022/05/27 18:59:45;;;;;;;;;;;;;;;;;;;;;
2022/05/27 19:02:46;;;;;;;1.90;1.00;;;;;;;;;;5016132;28;20113;-59
2022/05/27 19:08:11;;;;;;;1.65;0.90;;;;;;;;;;5016292;28;20036;-59
2022/05/27 19:11:11;;;;;;;3.03;1.30;;;;;;;;;;5010228;28;20044;-60
2022/05/27 19:13:55;;;;;;;1.70;0.93;;;;;;;;;;5015640;28;20493;-59
2022/05/27 19:22:38;;;;;;;2.50;1.40;;;;;;;;;;5016543;28;20121;-59
2022/05/27 19:37:52;;;;;;;4.93;1.30;;;;;;;;;;5016296;28;20139;-59
2022/05/27 19:40:35;;;;;;;6.65;2.03;;;;;;;;;;5004022;28;20060;-59
2022/05/27 19:43:32;;;;;;;2.30;1.10;;;;;;;;;;5030347;28;20488;-59
2022/05/27 19:46:37;;;;;;;3.13;0.98;;;;;;;;;;5009328;28;20121;-58
2022/05/27 20:08:48;;;;;;;;;;;;;;;;;;;;;
2022/05/27 20:11:14;;;;;;;2.03;1.20;;;;;;;;;;5021461;28;20052;-59
2022/05/27 20:13:49;;;;;;;1.73;0.95;;;;;;;;;;4993952;28;20049;-59
2022/05/27 20:16:46;;;;;;;2.10;1.25;;;;;;;;;;4994448;28;20066;-60
2022/05/27 20:19:48;;;;;;;2.92;1.33;;;;;;;;;;5032353;28;20046;-59
2022/05/27 20:22:26;;;;;;;2.28;1.58;;;;;;;;;;5035524;28;20030;-58
2022/05/27 20:25:05;;;;;;;2.65;2.00;;;;;;;;;;5017903;28;20021;-58
2022/05/27 20:27:59;;;;;;;2.67;1.60;;;;;;;;;;5033820;28;20026;-60
2022/05/27 20:31:04;;;;;;;2.33;1.58;;;;;;;;;;5033658;28;20068;-59
2022/05/27 20:33:38;;;;;;;2.75;1.63;;;;;;;;;;5034503;28;20025;-59
2022/05/27 20:39:11;;;;;;;1.85;1.20;;;;;;;;;;5034170;28;20064;-59
2022/05/27 20:42:28;;;;;;;2.90;1.75;;;;;;;;;;5016711;28;20026;-59
2022/05/27 20:45:14;;;;;;;2.30;1.48;;;;;;;;;;4992379;28;20028;-57
2022/05/27 20:48:19;;;;;;;1.85;1.10;;;;;;;;;;4976857;28;20518;-58
2022/05/27 20:54:21;;;;;;;2.30;1.50;;;;;;;;;;4970709;28;20063;-58
2022/05/27 20:56:50;;;;;;;2.63;1.65;;;;;;;;;;4922471;28;20032;-58
2022/05/27 20:59:35;;;;;;;2.90;1.48;;;;;;;;;;5014505;28;20041;-58
2022/05/27 21:05:20;;;;;;;3.10;1.55;;;;;;;;;;5039444;28;20040;-58
2022/05/27 21:07:58;;;;;;;2.38;1.63;;;;;;;;;;5010523;28;20159;-58
2022/05/27 21:10:55;;;;;;;2.47;1.40;;;;;;;;;;5044343;28;20087;-58
2022/05/27 21:13:33;;;;;;;2.40;1.50;;;;;;;;;;5045528;28;20394;-58
2022/05/27 21:19:42;;;;;;;2.95;1.77;;;;;;;;;;5047090;28;20457;-58
2022/05/27 21:22:36;;;;;;;3.90;1.70;;;;;;;;;;4963492;29;20532;-59
2022/05/27 21:25:29;;;;;;;2.42;1.50;;;;;;;;;;4986458;28;20120;-59
2022/05/27 21:28:50;;;;;;;;;;;;;;;;;;;;;
2022/05/27 21:34:29;;;;;;;3.72;2.05;;;;;;;;;;5048671;28;20384;-58
2022/05/27 21:36:58;;;;;;;4.47;2.38;;;;;;;;;;5049503;28;20055;-59
2022/05/27 21:39:37;;;;;;;;;;;;;;;;;;;;;
2022/05/27 21:42:04;;;;;;;2.90;1.60;;;;;;;;;;5046508;28;20076;-61
2022/05/27 21:44:33;;;;;;;2.97;1.60;;;;;;;;;;5030934;28;20033;-59
2022/05/27 21:50:13;;;;;;;2.97;1.60;;;;;;;;;;5020795;28;20038;-59
2022/05/27 21:53:12;;;;;;;;;;;;;;;;;;;;;
2022/05/27 21:55:40;;;;;;;3.00;1.73;;;;;;;;;;5045714;28;20504;-59
2022/05/27 21:58:37;;;;;;;2.17;1.35;;;;;;;;;;5031157;28;20037;-59
2022/05/27 22:01:09;;;;;;;3.55;1.83;;;;;;;;;;5048334;28;20018;-58
2022/05/27 22:04:23;;;;;;;3.90;2.38;;;;;;;;;;5062062;28;20064;-60
2022/05/27 22:13:06;;;;;;;2.53;1.75;;;;;;;;;;5029420;28;20045;-58
2022/05/27 22:15:51;;;;;;;;;;;;;;;;;;;;;
2022/05/27 22:18:38;;;;;;;3.33;1.50;;;;;;;;;;4978620;28;20097;-58
2022/05/27 22:21:38;;;;;;;4.80;2.00;;;;;;;;;;5029544;28;20064;-57
2022/05/27 22:24:06;;;;;;;1.80;1.35;;;;;;;;;;5028862;28;20054;-58
2022/05/27 22:29:34;;;;;;;3.38;1.77;;;;;;;;;;4974676;28;20078;-58
2022/05/27 22:32:20;;;;;;;2.17;1.67;;;;;;;;;;4973772;28;20039;-57
2022/05/27 22:35:18;;;;;;;2.58;1.77;;;;;;;;;;4987265;28;20038;-58
2022/05/27 22:38:14;;;;;;;4.40;1.77;;;;;;;;;;4984407;28;20041;-58
2022/05/27 22:40:49;;;;;;;3.03;1.52;;;;;;;;;;4995072;28;20044;-58
2022/05/27 22:43:35;;;;;;;3.10;1.35;;;;;;;;;;5010758;28;20034;-58
2022/05/27 22:46:11;;;;;;;3.85;1.77;;;;;;;;;;5010937;28;20030;-58
2022/05/27 22:48:56;;;;;;;2.75;1.83;;;;;;;;;;5028317;28;20038;-58
2022/05/27 22:51:38;;;;;;;2.10;1.33;;;;;;;;;;5027926;28;20022;-58
2022/05/27 22:57:35;;;;;;;2.40;1.83;;;;;;;;;;5020181;28;20030;-58
2022/05/27 23:00:08;;;;;;;4.22;1.98;;;;;;;;;;5028508;28;20032;-59
2022/05/27 23:02:57;;;;;;;3.00;1.98;;;;;;;;;;5028577;28;20080;-59
2022/05/27 23:05:57;;;;;;;5.65;2.03;;;;;;;;;;5027877;28;20026;-59
2022/05/27 23:08:54;;;;;;;2.23;1.70;;;;;;;;;;5038151;28;20100;-59
2022/05/27 23:11:46;;;;;;;2.47;1.67;;;;;;;;;;5047940;28;20034;-59
2022/05/27 23:20:40;;;;;;;;;;;;;;;;;;;;;
2022/05/27 23:23:40;;;;;;;3.92;2.22;;;;;;;;;;4995843;28;20070;-59
2022/05/27 23:26:05;;;;;;;6.63;2.80;;;;;;;;;;5044443;28;20097;-59
2022/05/27 23:28:40;;;;;;;5.00;2.53;;;;;;;;;;5048481;28;20072;-59
2022/05/27 23:31:37;;;;;;;4.30;3.13;;;;;;;;;;5042351;28;20037;-59
2022/05/27 23:34:32;;;;;;;4.68;2.40;;;;;;;;;;5047939;28;20036;-59